createdAt,value
2018-07-13T00:00:48.794Z,58.17
2018-07-13T00:01:48.789Z,57.69
2018-07-13T00:02:48.785Z,58.17
2018-07-13T00:04:09.785Z,57.98
2018-07-13T00:04:48.775Z,58.17
2018-07-13T00:05:48.772Z,58.07
2018-07-13T00:06:48.764Z,58.27
2018-07-13T00:07:48.756Z,57.88
2018-07-13T00:08:48.754Z,57.95
2018-07-13T00:10:09.761Z,57.98
2018-07-13T00:10:48.744Z,58.17
2018-07-13T00:11:48.739Z,57.79
2018-07-13T00:12:48.734Z,57.98
2018-07-13T00:13:48.731Z,57.79
2018-07-13T00:14:48.725Z,57.98
2018-07-13T00:16:09.724Z,57.79
2018-07-13T00:16:48.715Z,57.79
2018-07-13T00:17:48.712Z,58.37
2018-07-13T00:18:48.709Z,57.98
2018-07-13T00:19:48.700Z,58.44
2018-07-13T00:20:48.696Z,58.47
2018-07-13T00:22:09.698Z,58.47
2018-07-13T00:22:48.685Z,58.47
2018-07-13T00:23:48.679Z,58.17
2018-07-13T00:24:48.674Z,58.47
2018-07-13T00:25:48.672Z,58.47
2018-07-13T00:26:48.663Z,58.44
2018-07-13T00:28:09.666Z,58.47
2018-07-13T00:28:48.655Z,58.37
2018-07-13T00:29:48.652Z,58.37
2018-07-13T00:30:48.648Z,58.47
2018-07-13T00:31:48.650Z,58.37
2018-07-13T00:32:48.634Z,58.27
2018-07-13T00:34:09.638Z,58.17
2018-07-13T00:34:48.624Z,58.27
2018-07-13T00:35:48.619Z,58.27
2018-07-13T00:36:48.616Z,58.37
2018-07-13T00:37:48.610Z,58.07
2018-07-13T00:38:48.605Z,58.44
2018-07-13T00:40:09.606Z,58.37
2018-07-13T00:40:48.607Z,58.24
2018-07-13T00:41:48.589Z,58.44
2018-07-13T00:42:48.590Z,58.34
2018-07-13T00:43:48.578Z,58.47
2018-07-13T00:44:48.578Z,58.24
2018-07-13T00:46:09.579Z,58.44
2018-07-13T00:46:48.565Z,58.44
2018-07-13T00:47:48.559Z,58.24
2018-07-13T00:48:48.556Z,58.53
2018-07-13T00:49:48.550Z,58.14
2018-07-13T00:50:48.546Z,58.24
2018-07-13T00:52:09.546Z,58.53
2018-07-13T00:52:48.534Z,58.24
2018-07-13T00:53:48.531Z,58.24
2018-07-13T00:54:48.526Z,58.34
2018-07-13T00:55:48.520Z,58.63
2018-07-13T00:56:48.525Z,58.85
2018-07-13T00:58:09.529Z,58.72
2018-07-13T00:58:48.508Z,58.72
2018-07-13T00:59:48.510Z,58.63
2018-07-13T01:00:48.496Z,58.53
2018-07-13T01:01:48.491Z,58.53
2018-07-13T01:02:48.484Z,58.65
2018-07-13T01:04:09.489Z,58.63
2018-07-13T01:04:48.481Z,58.82
2018-07-13T01:05:48.471Z,58.63
2018-07-13T01:06:48.467Z,58.53
2018-07-13T01:07:48.461Z,58.82
2018-07-13T01:08:48.457Z,58.53
2018-07-13T01:10:09.459Z,58.53
2018-07-13T01:10:48.447Z,58.63
2018-07-13T01:11:48.441Z,58.53
2018-07-13T01:12:48.434Z,58.63
2018-07-13T01:13:48.432Z,58.53
2018-07-13T01:14:48.426Z,58.72
2018-07-13T01:16:09.426Z,58.63
2018-07-13T01:16:48.416Z,58.72
2018-07-13T01:17:48.416Z,58.63
2018-07-13T01:18:48.412Z,58.72
2018-07-13T01:19:48.400Z,58.53
2018-07-13T01:20:48.396Z,58.53
2018-07-13T01:22:09.399Z,58.53
2018-07-13T01:22:48.388Z,58.53
2018-07-13T01:23:48.380Z,58.63
2018-07-13T01:24:48.376Z,58.63
2018-07-13T01:25:48.369Z,58.53
2018-07-13T01:26:48.367Z,58.53
2018-07-13T01:28:09.377Z,58.53
2018-07-13T01:28:48.358Z,58.34
2018-07-13T01:29:48.353Z,58.53
2018-07-13T01:30:48.346Z,58.63
2018-07-13T01:31:48.343Z,58.44
2018-07-13T01:32:48.338Z,58.44
2018-07-13T01:34:09.338Z,58.53
2018-07-13T01:34:48.327Z,58.24
2018-07-13T01:35:48.330Z,58.24
2018-07-13T01:36:48.315Z,58.82
2018-07-13T01:37:48.312Z,58.34
2018-07-13T01:38:48.307Z,58.72
2018-07-13T01:40:09.305Z,58.44
2018-07-13T01:40:48.301Z,58.53
2018-07-13T01:41:48.290Z,58.63
2018-07-13T01:42:48.286Z,58.92
2018-07-13T01:43:48.281Z,58.72
2018-07-13T01:44:48.277Z,58.92
2018-07-13T01:46:09.277Z,59.01
2018-07-13T01:46:48.265Z,58.72
2018-07-13T01:47:48.258Z,58.72
2018-07-13T01:48:48.255Z,58.72
2018-07-13T01:49:48.250Z,58.82
2018-07-13T01:50:48.245Z,58.82
2018-07-13T01:52:09.248Z,58.82
2018-07-13T01:52:48.234Z,58.82
2018-07-13T01:53:48.230Z,58.63
2018-07-13T01:54:48.228Z,58.82
2018-07-13T01:55:48.242Z,58.92
2018-07-13T01:56:48.214Z,58.82
2018-07-13T01:58:09.221Z,58.82
2018-07-13T01:58:48.223Z,58.82
2018-07-13T01:59:48.201Z,59.01
2018-07-13T02:00:48.195Z,59.01
2018-07-13T02:01:48.190Z,58.92
2018-07-13T02:02:48.185Z,59.01
2018-07-13T02:04:09.189Z,58.92
2018-07-13T02:04:48.190Z,59.31
2018-07-13T02:05:48.170Z,59.40
2018-07-13T02:06:48.170Z,59.01
2018-07-13T02:07:48.162Z,59.01
2018-07-13T02:08:48.155Z,59.21
2018-07-13T02:10:09.158Z,59.21
2018-07-13T02:10:48.146Z,59.21
2018-07-13T02:11:48.138Z,59.21
2018-07-13T02:12:48.134Z,59.21
2018-07-13T02:13:48.131Z,59.11
2018-07-13T02:14:48.125Z,59.11
2018-07-13T02:16:09.124Z,59.11
2018-07-13T02:16:48.114Z,59.11
2018-07-13T02:17:48.170Z,59.31
2018-07-13T02:18:48.105Z,59.11
2018-07-13T02:19:48.097Z,59.21
2018-07-13T02:20:48.096Z,59.21
2018-07-13T02:22:09.096Z,59.11
2018-07-13T02:22:48.084Z,59.31
2018-07-13T02:23:48.079Z,59.31
2018-07-13T02:24:48.075Z,59.31
2018-07-13T02:25:48.069Z,59.31
2018-07-13T02:26:48.066Z,59.31
2018-07-13T02:28:09.091Z,59.11
2018-07-13T02:28:48.071Z,59.31
2018-07-13T02:29:48.048Z,59.31
2018-07-13T02:30:48.073Z,59.31
2018-07-13T02:31:48.036Z,59.31
2018-07-13T02:32:48.034Z,59.31
2018-07-13T02:34:09.035Z,59.21
2018-07-13T02:34:48.028Z,59.01
2018-07-13T02:35:48.017Z,59.31
2018-07-13T02:36:48.023Z,59.31
2018-07-13T02:37:48.008Z,59.11
2018-07-13T02:38:48.004Z,59.21
2018-07-13T02:40:09.004Z,59.21
2018-07-13T02:40:47.993Z,59.21
2018-07-13T02:41:47.988Z,59.21
2018-07-13T02:42:47.985Z,59.21
2018-07-13T02:43:47.979Z,59.21
2018-07-13T02:44:47.976Z,59.11
2018-07-13T02:46:08.975Z,59.21
2018-07-13T02:46:47.965Z,59.21
2018-07-13T02:47:47.958Z,59.40
2018-07-13T02:48:47.952Z,59.31
2018-07-13T02:49:47.949Z,59.21
2018-07-13T02:50:47.944Z,59.40
2018-07-13T02:52:08.945Z,59.40
2018-07-13T02:52:47.933Z,59.21
2018-07-13T02:53:47.927Z,58.92
2018-07-13T02:54:47.922Z,59.21
2018-07-13T02:55:47.924Z,58.92
2018-07-13T02:56:47.911Z,59.01
2018-07-13T02:58:08.916Z,59.21
2018-07-13T02:58:47.905Z,59.21
2018-07-13T02:59:47.899Z,59.11
2018-07-13T03:00:47.898Z,59.01
2018-07-13T03:01:47.892Z,59.31
2018-07-13T03:02:47.882Z,59.31
2018-07-13T03:04:08.887Z,59.31
2018-07-13T03:04:47.872Z,59.40
2018-07-13T03:05:47.869Z,59.31
2018-07-13T03:06:47.862Z,59.11
2018-07-13T03:07:47.859Z,59.50
2018-07-13T03:08:47.852Z,59.11
2018-07-13T03:10:08.859Z,59.01
2018-07-13T03:10:47.845Z,59.50
2018-07-13T03:11:47.838Z,59.11
2018-07-13T03:12:47.833Z,59.31
2018-07-13T03:13:47.826Z,59.40
2018-07-13T03:14:47.822Z,59.50
2018-07-13T03:16:08.822Z,59.31
2018-07-13T03:16:47.811Z,59.21
2018-07-13T03:17:47.807Z,59.21
2018-07-13T03:18:47.802Z,59.21
2018-07-13T03:19:47.795Z,59.40
2018-07-13T03:20:47.791Z,59.21
2018-07-13T03:22:08.826Z,59.21
2018-07-13T03:22:47.781Z,59.50
2018-07-13T03:23:47.774Z,59.50
2018-07-13T03:24:47.770Z,59.31
2018-07-13T03:25:47.766Z,59.21
2018-07-13T03:26:47.764Z,59.31
2018-07-13T03:28:08.762Z,59.50
2018-07-13T03:28:47.749Z,59.40
2018-07-13T03:29:47.746Z,59.59
2018-07-13T03:30:47.742Z,59.69
2018-07-13T03:31:47.735Z,59.59
2018-07-13T03:32:47.729Z,59.59
2018-07-13T03:34:08.733Z,59.69
2018-07-13T03:34:47.719Z,59.79
2018-07-13T03:35:47.725Z,59.50
2018-07-13T03:36:47.711Z,59.69
2018-07-13T03:37:47.706Z,59.98
2018-07-13T03:38:47.703Z,59.98
2018-07-13T03:40:08.700Z,59.89
2018-07-13T03:40:47.688Z,59.89
2018-07-13T03:41:47.688Z,59.79
2018-07-13T03:42:47.680Z,59.69
2018-07-13T03:43:47.673Z,60.08
2018-07-13T03:44:47.671Z,59.79
2018-07-13T03:46:08.669Z,60.08
2018-07-13T03:46:47.657Z,59.98
2018-07-13T03:47:47.649Z,59.79
2018-07-13T03:48:47.645Z,59.89
2018-07-13T03:49:47.638Z,59.79
2018-07-13T03:50:47.632Z,59.79
2018-07-13T03:52:08.637Z,59.69
2018-07-13T03:52:47.620Z,59.69
2018-07-13T03:53:47.616Z,59.89
2018-07-13T03:54:47.610Z,59.98
2018-07-13T03:55:47.602Z,59.89
2018-07-13T03:56:47.598Z,59.72
2018-07-13T03:58:08.598Z,59.98
2018-07-13T03:58:47.587Z,59.91
2018-07-13T03:59:47.582Z,59.79
2018-07-13T04:00:47.575Z,60.08
2018-07-13T04:01:47.602Z,59.72
2018-07-13T04:02:47.559Z,60.01
2018-07-13T04:04:08.559Z,59.59
2018-07-13T04:04:47.548Z,59.89
2018-07-13T04:05:47.542Z,59.91
2018-07-13T04:06:47.535Z,59.79
2018-07-13T04:07:47.533Z,59.69
2018-07-13T04:08:47.524Z,59.82
2018-07-13T04:10:08.523Z,59.79
2018-07-13T04:10:47.511Z,59.79
2018-07-13T04:11:47.508Z,59.40
2018-07-13T04:12:47.497Z,59.98
2018-07-13T04:13:47.491Z,60.17
2018-07-13T04:14:47.489Z,59.31
2018-07-13T04:16:08.483Z,60.01
2018-07-13T04:16:47.472Z,59.98
2018-07-13T04:17:47.466Z,60.08
2018-07-13T04:18:47.463Z,59.89
2018-07-13T04:19:47.453Z,59.69
2018-07-13T04:20:47.575Z,59.69
2018-07-13T04:22:08.446Z,59.69
2018-07-13T04:22:47.435Z,59.89
2018-07-13T04:23:47.435Z,59.98
2018-07-13T04:24:47.423Z,59.79
2018-07-13T04:25:47.415Z,59.79
2018-07-13T04:26:47.408Z,59.59
2018-07-13T04:28:08.409Z,59.82
2018-07-13T04:28:47.435Z,59.69
2018-07-13T04:29:47.388Z,59.50
2018-07-13T04:30:47.383Z,59.21
2018-07-13T04:31:47.374Z,59.31
2018-07-13T04:32:47.370Z,59.11
2018-07-13T04:34:08.416Z,59.23
2018-07-13T04:34:47.356Z,59.31
2018-07-13T04:35:47.348Z,59.33
2018-07-13T04:36:47.345Z,58.82
2018-07-13T04:37:47.337Z,59.23
2018-07-13T04:38:47.330Z,59.21
2018-07-13T04:40:08.329Z,59.33
2018-07-13T04:40:47.362Z,59.31
2018-07-13T04:41:47.310Z,59.33
2018-07-13T04:42:47.304Z,59.14
2018-07-13T04:43:47.297Z,59.23
2018-07-13T04:44:47.290Z,59.23
2018-07-13T04:46:08.290Z,59.23
2018-07-13T04:46:47.278Z,59.14
2018-07-13T04:47:47.271Z,59.53
2018-07-13T04:48:47.265Z,58.95
2018-07-13T04:49:47.257Z,58.75
2018-07-13T04:50:47.251Z,58.65
2018-07-13T04:52:08.251Z,58.75
2018-07-13T04:52:47.238Z,58.56
2018-07-13T04:53:47.232Z,58.75
2018-07-13T04:54:47.228Z,58.56
2018-07-13T04:55:47.220Z,58.56
2018-07-13T04:56:47.211Z,58.56
2018-07-13T04:58:08.214Z,58.65
2018-07-13T04:58:47.199Z,58.65
2018-07-13T04:59:47.194Z,58.47
2018-07-13T05:00:47.186Z,58.56
2018-07-13T05:01:47.186Z,58.65
2018-07-13T05:02:47.174Z,58.65
2018-07-13T05:04:08.170Z,58.56
2018-07-13T05:04:47.160Z,58.75
2018-07-13T05:05:47.153Z,58.65
2018-07-13T05:06:47.148Z,58.85
2018-07-13T05:07:47.140Z,58.47
2018-07-13T05:08:47.139Z,58.85
2018-07-13T05:10:08.134Z,58.85
2018-07-13T05:10:47.121Z,58.85
2018-07-13T05:11:47.114Z,58.56
2018-07-13T05:12:47.107Z,58.65
2018-07-13T05:13:47.100Z,58.37
2018-07-13T05:14:47.094Z,58.37
2018-07-13T05:16:08.092Z,58.27
2018-07-13T05:16:47.081Z,58.37
2018-07-13T05:17:47.079Z,58.47
2018-07-13T05:18:47.069Z,58.37
2018-07-13T05:19:47.060Z,58.27
2018-07-13T05:20:47.054Z,58.17
2018-07-13T05:22:08.054Z,58.17
2018-07-13T05:22:47.047Z,58.47
2018-07-13T05:23:47.034Z,58.17
2018-07-13T05:24:47.028Z,58.37
2018-07-13T05:25:47.020Z,58.37
2018-07-13T05:26:47.020Z,58.27
2018-07-13T05:28:08.016Z,58.27
2018-07-13T05:28:47.005Z,58.07
2018-07-13T05:29:46.997Z,58.47
2018-07-13T05:30:47.048Z,58.27
2018-07-13T05:31:46.982Z,58.27
2018-07-13T05:32:46.977Z,58.47
2018-07-13T05:34:07.978Z,58.17
2018-07-13T05:34:46.965Z,58.47
2018-07-13T05:35:46.967Z,58.27
2018-07-13T05:36:46.950Z,58.27
2018-07-13T05:37:46.946Z,58.47
2018-07-13T05:38:46.939Z,58.17
2018-07-13T05:40:07.937Z,58.47
2018-07-13T05:40:46.924Z,58.27
2018-07-13T05:41:46.923Z,58.56
2018-07-13T05:42:46.912Z,58.17
2018-07-13T05:43:46.902Z,58.37
2018-07-13T05:44:46.898Z,58.37
2018-07-13T05:46:07.903Z,58.17
2018-07-13T05:46:46.885Z,58.27
2018-07-13T05:47:46.879Z,58.37
2018-07-13T05:48:46.872Z,58.37
2018-07-13T05:49:46.980Z,58.27
2018-07-13T05:50:46.860Z,58.47
2018-07-13T05:52:07.859Z,58.17
2018-07-13T05:52:46.846Z,58.37
2018-07-13T05:53:46.838Z,58.27
2018-07-13T05:54:46.835Z,58.47
2018-07-13T05:55:46.829Z,58.27
2018-07-13T05:56:46.819Z,58.37
2018-07-13T05:58:07.822Z,58.47
2018-07-13T05:58:46.807Z,58.47
2018-07-13T05:59:46.801Z,58.47
2018-07-13T06:00:46.794Z,58.37
2018-07-13T06:01:46.788Z,58.56
2018-07-13T06:02:46.784Z,58.56
2018-07-13T06:04:07.783Z,58.56
2018-07-13T06:04:46.767Z,58.56
2018-07-13T06:05:46.761Z,58.56
2018-07-13T06:06:46.755Z,58.56
2018-07-13T06:07:46.748Z,58.47
2018-07-13T06:08:46.742Z,58.27
2018-07-13T06:10:07.743Z,57.98
2018-07-13T06:10:46.730Z,58.37
2018-07-13T06:11:46.724Z,58.37
2018-07-13T06:12:46.716Z,58.37
2018-07-13T06:13:46.710Z,58.17
2018-07-13T06:14:46.768Z,57.88
2018-07-13T06:16:07.701Z,57.79
2018-07-13T06:16:46.690Z,57.88
2018-07-13T06:17:46.689Z,57.88
2018-07-13T06:18:46.678Z,57.98
2018-07-13T06:19:46.670Z,57.98
2018-07-13T06:20:46.668Z,57.98
2018-07-13T06:22:07.666Z,57.98
2018-07-13T06:22:46.655Z,57.98
2018-07-13T06:23:46.645Z,57.88
2018-07-13T06:24:46.638Z,58.07
2018-07-13T06:25:46.636Z,57.98
2018-07-13T06:26:46.641Z,58.17
2018-07-13T06:28:07.625Z,57.98
2018-07-13T06:28:46.615Z,58.07
2018-07-13T06:29:46.609Z,58.17
2018-07-13T06:30:46.601Z,57.79
2018-07-13T06:31:46.594Z,57.98
2018-07-13T06:32:46.588Z,57.98
2018-07-13T06:34:07.589Z,57.98
2018-07-13T06:34:46.579Z,57.98
2018-07-13T06:35:46.569Z,57.98
2018-07-13T06:36:46.561Z,57.98
2018-07-13T06:37:46.560Z,58.27
2018-07-13T06:38:46.549Z,58.27
2018-07-13T06:40:07.546Z,58.07
2018-07-13T06:40:46.536Z,58.17
2018-07-13T06:41:46.530Z,57.98
2018-07-13T06:42:46.527Z,57.98
2018-07-13T06:43:46.516Z,57.98
2018-07-13T06:44:46.568Z,58.07
2018-07-13T06:46:07.512Z,57.79
2018-07-13T06:46:46.497Z,57.79
2018-07-13T06:47:46.490Z,57.53
2018-07-13T06:48:46.484Z,57.40
2018-07-13T06:49:46.478Z,57.43
2018-07-13T06:50:46.489Z,57.62
2018-07-13T06:52:07.473Z,57.69
2018-07-13T06:52:46.459Z,57.71
2018-07-13T06:53:46.453Z,57.43
2018-07-13T06:54:46.445Z,57.71
2018-07-13T06:55:46.444Z,57.81
2018-07-13T06:56:46.467Z,57.81
2018-07-13T06:58:07.435Z,57.81
2018-07-13T06:58:46.420Z,57.81
2018-07-13T06:59:46.413Z,57.33
2018-07-13T07:00:46.406Z,57.33
2018-07-13T07:01:46.403Z,57.33
2018-07-13T07:02:46.398Z,57.04
2018-07-13T07:04:07.396Z,57.04
2018-07-13T07:04:46.386Z,57.04
2018-07-13T07:05:46.377Z,56.85
2018-07-13T07:06:46.371Z,57.14
2018-07-13T07:07:46.367Z,57.14
2018-07-13T07:08:46.386Z,57.14
2018-07-13T07:10:07.360Z,57.04
2018-07-13T07:10:46.346Z,57.33
2018-07-13T07:11:46.338Z,57.23
2018-07-13T07:12:46.333Z,57.33
2018-07-13T07:13:46.326Z,57.23
2018-07-13T07:14:46.321Z,57.23
2018-07-13T07:16:07.322Z,57.04
2018-07-13T07:16:46.307Z,57.04
2018-07-13T07:17:46.407Z,57.04
2018-07-13T07:18:46.302Z,57.04
2018-07-13T07:19:46.288Z,57.04
2018-07-13T07:20:46.281Z,56.94
2018-07-13T07:22:07.284Z,57.33
2018-07-13T07:22:46.271Z,56.56
2018-07-13T07:23:46.265Z,56.75
2018-07-13T07:24:46.257Z,56.56
2018-07-13T07:25:46.251Z,56.56
2018-07-13T07:26:46.245Z,56.75
2018-07-13T07:28:07.243Z,56.85
2018-07-13T07:28:46.232Z,56.65
2018-07-13T07:29:46.226Z,56.65
2018-07-13T07:30:46.254Z,56.59
2018-07-13T07:31:46.213Z,56.59
2018-07-13T07:32:46.206Z,56.46
2018-07-13T07:34:07.208Z,56.46
2018-07-13T07:34:46.195Z,56.10
2018-07-13T07:35:46.188Z,56.20
2018-07-13T07:36:46.182Z,56.20
2018-07-13T07:37:46.180Z,56.20
2018-07-13T07:38:46.170Z,56.49
2018-07-13T07:40:07.169Z,56.49
2018-07-13T07:40:46.157Z,56.68
2018-07-13T07:41:46.160Z,56.39
2018-07-13T07:42:46.144Z,56.59
2018-07-13T07:43:46.141Z,56.29
2018-07-13T07:44:46.132Z,56.49
2018-07-13T07:46:07.136Z,56.29
2018-07-13T07:46:46.122Z,55.71
2018-07-13T07:47:46.173Z,56.00
2018-07-13T07:48:46.107Z,55.81
2018-07-13T07:49:46.104Z,55.90
2018-07-13T07:50:46.097Z,55.81
2018-07-13T07:52:07.097Z,55.52
2018-07-13T07:52:46.085Z,55.74
2018-07-13T07:53:46.079Z,55.62
2018-07-13T07:54:46.072Z,55.93
2018-07-13T07:55:46.067Z,55.93
2018-07-13T07:56:46.059Z,55.44
2018-07-13T07:58:07.058Z,55.35
2018-07-13T07:58:46.049Z,55.83
2018-07-13T07:59:46.041Z,55.64
2018-07-13T08:00:46.033Z,55.54
2018-07-13T08:01:46.092Z,55.44
2018-07-13T08:02:46.030Z,55.44
2018-07-13T08:04:07.024Z,55.54
2018-07-13T08:04:46.012Z,55.16
2018-07-13T08:05:46.007Z,54.96
2018-07-13T08:06:46.263Z,54.96
2018-07-13T08:07:45.994Z,55.06
2018-07-13T08:08:45.989Z,54.77
2018-07-13T08:10:06.992Z,55.06
2018-07-13T08:10:45.977Z,55.06
2018-07-13T08:11:45.971Z,55.06
2018-07-13T08:12:45.965Z,55.26
2018-07-13T08:13:45.998Z,54.96
2018-07-13T08:14:45.967Z,55.28
2018-07-13T08:16:06.959Z,55.18
2018-07-13T08:16:45.956Z,54.50
2018-07-13T08:17:45.938Z,54.90
2018-07-13T08:18:45.932Z,54.50
2018-07-13T08:19:45.924Z,54.31
2018-07-13T08:20:45.920Z,54.41
2018-07-13T08:22:06.918Z,54.50
2018-07-13T08:22:45.908Z,54.41
2018-07-13T08:23:45.901Z,54.31
2018-07-13T08:24:45.903Z,54.60
2018-07-13T08:25:45.891Z,54.11
2018-07-13T08:26:45.914Z,54.31
2018-07-13T08:28:06.883Z,54.31
2018-07-13T08:28:45.871Z,54.02
2018-07-13T08:29:45.869Z,54.24
2018-07-13T08:30:45.861Z,54.02
2018-07-13T08:31:45.853Z,54.05
2018-07-13T08:32:45.849Z,54.24
2018-07-13T08:34:06.850Z,54.31
2018-07-13T08:34:45.837Z,54.21
2018-07-13T08:35:45.831Z,54.50
2018-07-13T08:36:45.826Z,54.53
2018-07-13T08:37:45.829Z,54.44
2018-07-13T08:38:45.815Z,54.14
2018-07-13T08:40:06.814Z,53.85
2018-07-13T08:40:45.803Z,53.85
2018-07-13T08:41:45.797Z,53.66
2018-07-13T08:42:45.793Z,53.85
2018-07-13T08:43:45.790Z,53.95
2018-07-13T08:44:45.781Z,53.75
2018-07-13T08:46:06.780Z,53.85
2018-07-13T08:46:45.769Z,53.85
2018-07-13T08:47:45.762Z,53.95
2018-07-13T08:48:45.758Z,53.75
2018-07-13T08:49:45.756Z,53.56
2018-07-13T08:50:45.747Z,53.66
2018-07-13T08:52:06.749Z,53.37
2018-07-13T08:52:45.737Z,53.56
2018-07-13T08:53:45.731Z,53.17
2018-07-13T08:54:45.724Z,53.17
2018-07-13T08:55:45.720Z,53.08
2018-07-13T08:56:45.714Z,53.49
2018-07-13T08:58:06.718Z,52.98
2018-07-13T08:58:45.707Z,53.37
2018-07-13T08:59:45.752Z,53.69
2018-07-13T09:00:45.692Z,52.72
2018-07-13T09:01:45.828Z,53.00
2018-07-13T09:02:45.684Z,53.00
2018-07-13T09:04:06.691Z,53.00
2018-07-13T09:04:45.713Z,52.91
2018-07-13T09:05:45.705Z,53.10
2018-07-13T09:06:45.661Z,53.00
2018-07-13T09:07:45.656Z,52.62
2018-07-13T09:08:45.649Z,52.62
2018-07-13T09:10:06.653Z,52.72
2018-07-13T09:10:45.643Z,52.52
2018-07-13T09:11:45.692Z,52.33
2018-07-13T09:12:45.627Z,52.52
2018-07-13T09:13:45.624Z,52.42
2018-07-13T09:14:45.618Z,52.52
2018-07-13T09:16:06.619Z,52.91
2018-07-13T09:16:45.608Z,52.72
2018-07-13T09:17:45.605Z,52.81
2018-07-13T09:18:45.600Z,52.62
2018-07-13T09:19:45.593Z,52.33
2018-07-13T09:20:45.585Z,52.33
2018-07-13T09:22:06.589Z,52.25
2018-07-13T09:22:45.576Z,52.64
2018-07-13T09:23:45.571Z,52.35
2018-07-13T09:24:45.565Z,52.06
2018-07-13T09:25:45.560Z,52.15
2018-07-13T09:26:45.579Z,51.87
2018-07-13T09:28:06.554Z,51.77
2018-07-13T09:28:45.544Z,51.87
2018-07-13T09:29:45.539Z,52.06
2018-07-13T09:30:45.565Z,51.97
2018-07-13T09:31:45.529Z,52.06
2018-07-13T09:32:45.556Z,51.77
2018-07-13T09:34:06.527Z,51.67
2018-07-13T09:34:45.514Z,51.28
2018-07-13T09:35:45.512Z,51.38
2018-07-13T09:36:45.503Z,51.48
2018-07-13T09:37:45.497Z,51.57
2018-07-13T09:38:45.493Z,51.38
2018-07-13T09:40:06.494Z,51.77
2018-07-13T09:40:45.483Z,51.87
2018-07-13T09:41:45.481Z,51.77
2018-07-13T09:42:45.474Z,51.99
2018-07-13T09:43:45.466Z,51.67
2018-07-13T09:44:45.462Z,51.60
2018-07-13T09:46:06.465Z,51.40
2018-07-13T09:46:45.512Z,51.21
2018-07-13T09:47:45.447Z,51.01
2018-07-13T09:48:45.442Z,51.11
2018-07-13T09:49:45.438Z,51.01
2018-07-13T09:50:45.437Z,50.92
2018-07-13T09:52:06.433Z,51.21
2018-07-13T09:52:45.422Z,51.21
2018-07-13T09:53:45.473Z,51.11
2018-07-13T09:54:45.412Z,50.73
2018-07-13T09:55:45.405Z,50.82
2018-07-13T09:56:45.402Z,51.01
2018-07-13T09:58:06.423Z,50.92
2018-07-13T09:58:45.396Z,50.73
2018-07-13T09:59:45.390Z,50.82
2018-07-13T10:00:45.403Z,50.92
2018-07-13T10:01:45.377Z,50.63
2018-07-13T10:02:45.372Z,50.53
2018-07-13T10:04:06.376Z,50.82
2018-07-13T10:04:45.363Z,51.01
2018-07-13T10:05:45.358Z,50.92
2018-07-13T10:06:45.354Z,50.63
2018-07-13T10:07:45.348Z,50.14
2018-07-13T10:08:45.343Z,50.14
2018-07-13T10:10:06.346Z,50.24
2018-07-13T10:10:45.332Z,50.14
2018-07-13T10:11:45.328Z,50.24
2018-07-13T10:12:45.323Z,50.14
2018-07-13T10:13:45.318Z,49.95
2018-07-13T10:14:45.316Z,50.04
2018-07-13T10:16:06.314Z,50.04
2018-07-13T10:16:45.306Z,49.95
2018-07-13T10:17:45.299Z,49.95
2018-07-13T10:18:45.296Z,50.14
2018-07-13T10:19:45.289Z,50.14
2018-07-13T10:20:45.347Z,50.34
2018-07-13T10:22:06.286Z,50.24
2018-07-13T10:22:45.279Z,50.04
2018-07-13T10:23:45.269Z,50.04
2018-07-13T10:24:45.267Z,50.04
2018-07-13T10:25:45.262Z,49.85
2018-07-13T10:26:45.258Z,49.56
2018-07-13T10:28:06.255Z,49.58
2018-07-13T10:28:45.250Z,49.68
2018-07-13T10:29:45.246Z,49.87
2018-07-13T10:30:45.259Z,49.49
2018-07-13T10:31:45.230Z,49.19
2018-07-13T10:32:45.225Z,49.49
2018-07-13T10:34:06.228Z,49.49
2018-07-13T10:34:45.218Z,49.39
2018-07-13T10:35:45.211Z,49.49
2018-07-13T10:36:45.212Z,49.39
2018-07-13T10:37:45.300Z,49.19
2018-07-13T10:38:45.199Z,49.00
2018-07-13T10:40:06.198Z,49.10
2018-07-13T10:40:45.188Z,49.00
2018-07-13T10:41:45.187Z,49.00
2018-07-13T10:42:45.180Z,48.80
2018-07-13T10:43:45.172Z,48.71
2018-07-13T10:44:45.170Z,48.80
2018-07-13T10:46:06.173Z,48.61
2018-07-13T10:46:45.161Z,48.71
2018-07-13T10:47:45.209Z,48.71
2018-07-13T10:48:45.152Z,49.00
2018-07-13T10:49:45.146Z,48.80
2018-07-13T10:50:45.143Z,48.80
2018-07-13T10:52:06.144Z,49.00
2018-07-13T10:52:45.132Z,48.61
2018-07-13T10:53:45.129Z,48.80
2018-07-13T10:54:45.124Z,48.51
2018-07-13T10:55:45.119Z,48.41
2018-07-13T10:56:45.115Z,48.41
2018-07-13T10:58:06.119Z,48.22
2018-07-13T10:58:45.156Z,48.51
2018-07-13T10:59:45.103Z,48.41
2018-07-13T11:00:45.098Z,48.32
2018-07-13T11:01:45.090Z,48.41
2018-07-13T11:02:45.128Z,48.41
2018-07-13T11:04:06.088Z,48.51
2018-07-13T11:04:45.078Z,48.61
2018-07-13T11:05:45.074Z,48.32
2018-07-13T11:06:45.070Z,48.41
2018-07-13T11:07:45.064Z,48.32
2018-07-13T11:08:45.061Z,48.22
2018-07-13T11:10:06.061Z,47.93
2018-07-13T11:10:45.051Z,48.13
2018-07-13T11:11:45.050Z,48.13
2018-07-13T11:12:45.040Z,47.74
2018-07-13T11:13:45.085Z,48.03
2018-07-13T11:14:45.031Z,47.74
2018-07-13T11:16:06.032Z,47.64
2018-07-13T11:16:45.026Z,47.93
2018-07-13T11:17:45.017Z,47.93
2018-07-13T11:18:45.015Z,47.93
2018-07-13T11:19:45.008Z,47.83
2018-07-13T11:20:45.002Z,48.03
2018-07-13T11:22:06.006Z,48.03
2018-07-13T11:22:44.996Z,47.83
2018-07-13T11:23:44.993Z,47.93
2018-07-13T11:24:44.984Z,48.03
2018-07-13T11:25:44.979Z,48.13
2018-07-13T11:26:44.975Z,48.22
2018-07-13T11:28:05.976Z,47.93
2018-07-13T11:28:44.966Z,47.83
2018-07-13T11:29:44.988Z,47.74
2018-07-13T11:30:44.955Z,47.74
2018-07-13T11:31:44.952Z,47.64
2018-07-13T11:32:44.947Z,47.54
2018-07-13T11:34:05.951Z,47.83
2018-07-13T11:34:44.950Z,47.54
2018-07-13T11:35:44.934Z,47.86
2018-07-13T11:36:44.963Z,47.83
2018-07-13T11:37:45.010Z,47.64
2018-07-13T11:38:44.939Z,47.93
2018-07-13T11:40:05.923Z,47.54
2018-07-13T11:40:44.909Z,47.54
2018-07-13T11:41:44.976Z,47.74
2018-07-13T11:42:44.901Z,47.64
2018-07-13T11:43:44.924Z,47.74
2018-07-13T11:44:44.894Z,47.64
2018-07-13T11:46:05.901Z,47.34
2018-07-13T11:46:44.883Z,47.74
2018-07-13T11:47:44.873Z,47.34
2018-07-13T11:48:44.874Z,47.25
2018-07-13T11:49:44.867Z,47.44
2018-07-13T11:50:44.864Z,47.34
2018-07-13T11:52:05.877Z,47.74
2018-07-13T11:52:44.853Z,47.64
2018-07-13T11:53:44.849Z,47.54
2018-07-13T11:54:44.848Z,47.54
2018-07-13T11:55:44.838Z,48.05
2018-07-13T11:56:44.839Z,47.54
2018-07-13T11:58:05.840Z,47.64
2018-07-13T11:58:44.839Z,47.34
2018-07-13T11:59:44.820Z,47.34
2018-07-13T12:00:44.817Z,47.25
2018-07-13T12:01:44.861Z,47.15
2018-07-13T12:02:44.808Z,47.34
2018-07-13T12:04:05.813Z,47.05
2018-07-13T12:04:44.816Z,47.34
2018-07-13T12:05:44.794Z,47.44
2018-07-13T12:06:44.790Z,47.44
2018-07-13T12:07:44.990Z,47.34
2018-07-13T12:08:44.779Z,47.34
2018-07-13T12:10:05.783Z,47.44
2018-07-13T12:10:44.771Z,47.44
2018-07-13T12:11:44.767Z,47.34
2018-07-13T12:12:44.794Z,47.44
2018-07-13T12:13:44.757Z,47.44
2018-07-13T12:14:44.752Z,47.44
2018-07-13T12:16:05.753Z,47.44
2018-07-13T12:16:44.822Z,47.34
2018-07-13T12:17:44.822Z,47.44
2018-07-13T12:18:44.735Z,47.44
2018-07-13T12:19:44.744Z,47.44
2018-07-13T12:20:44.724Z,47.44
2018-07-13T12:22:05.726Z,47.44
2018-07-13T12:22:44.715Z,47.44
2018-07-13T12:23:44.746Z,47.44
2018-07-13T12:24:44.707Z,47.34
2018-07-13T12:25:44.699Z,47.44
2018-07-13T12:26:44.695Z,47.34
2018-07-13T12:28:05.697Z,47.25
2018-07-13T12:28:44.686Z,47.34
2018-07-13T12:29:44.682Z,46.96
2018-07-13T12:30:44.676Z,47.34
2018-07-13T12:31:44.675Z,47.34
2018-07-13T12:32:44.667Z,47.23
2018-07-13T12:34:05.670Z,47.44
2018-07-13T12:34:44.657Z,47.34
2018-07-13T12:35:44.654Z,46.96
2018-07-13T12:36:44.647Z,47.34
2018-07-13T12:37:44.643Z,46.96
2018-07-13T12:38:44.639Z,47.25
2018-07-13T12:40:05.640Z,47.34
2018-07-13T12:40:44.632Z,47.34
2018-07-13T12:41:44.623Z,47.34
2018-07-13T12:42:44.619Z,46.96
2018-07-13T12:43:44.614Z,47.13
2018-07-13T12:44:44.610Z,47.15
2018-07-13T12:46:05.662Z,47.34
2018-07-13T12:46:44.599Z,47.15
2018-07-13T12:47:44.595Z,47.23
2018-07-13T12:48:44.590Z,47.25
2018-07-13T12:49:44.585Z,47.44
2018-07-13T12:50:44.580Z,47.32
2018-07-13T12:52:05.583Z,46.94
2018-07-13T12:52:44.570Z,47.32